Time;durP1;ratioP1;P1;durP2;ratioP2;P2;SDS_P1;SDS_P2;PMS_P1;PMS_P2;Temp;Humidity;BMP_temperature;BMP_pressure;BME280_temperature;BME280_humidity;BME280_pressure;Samples;Min_cycle;Max_cycle;Signal;HPM_P1;HPM_P2
2023/08/27 00:02:21;;;;;;;3.03;2.25;;;;;;;17.42;99.89;100872.84;4794941;29;20143;-65
2023/08/27 00:04:49;;;;;;;2.80;2.05;;;;;;;17.46;100.00;100877.41;4810521;29;20051;-65
2023/08/27 00:07:17;;;;;;;4.15;2.10;;;;;;;17.60;100.00;100882.03;4809464;29;20054;-65
2023/08/27 00:09:44;;;;;;;2.42;1.98;;;;;;;17.69;100.00;100869.13;4793897;29;20062;-66
2023/08/27 00:12:12;;;;;;;4.35;2.08;;;;;;;17.77;100.00;100875.81;4809388;29;20492;-65
2023/08/27 00:14:40;;;;;;;2.92;1.75;;;;;;;17.70;100.00;100878.19;4816664;29;20064;-65
2023/08/27 00:17:08;;;;;;;5.80;1.85;;;;;;;17.69;100.00;100869.13;4827375;29;20050;-64
2023/08/27 00:19:36;;;;;;;2.20;1.70;;;;;;;17.78;100.00;100872.75;4804414;29;20465;-65
2023/08/27 00:22:03;;;;;;;4.28;1.90;;;;;;;17.79;100.00;100866.09;4778684;29;20557;-65
2023/08/27 00:24:32;;;;;;;3.95;2.05;;;;;;;17.77;100.00;100864.78;4809332;29;20548;-65
2023/08/27 00:27:00;;;;;;;4.32;1.92;;;;;;;17.81;100.00;100858.38;4792390;29;20059;-65
2023/08/27 00:29:27;;;;;;;4.03;1.80;;;;;;;17.77;100.00;100854.56;4793365;29;20055;-64
2023/08/27 00:31:55;;;;;;;2.83;2.05;;;;;;;17.73;100.00;100850.84;4808534;29;20051;-65
2023/08/27 00:34:32;;;;;;;4.05;2.17;;;;;;;17.61;100.00;100851.41;4792854;29;20511;-64
2023/08/27 00:37:02;;;;;;;5.80;2.20;;;;;;;17.53;100.00;100837.56;4809434;29;20063;-64
2023/08/27 00:39:30;;;;;;;3.78;2.17;;;;;;;17.40;100.00;100842.84;4809254;29;20071;-65
2023/08/27 00:41:58;;;;;;;4.00;1.90;;;;;;;17.26;100.00;100844.84;4796288;29;20457;-64
2023/08/27 00:44:25;;;;;;;4.00;2.42;;;;;;;17.25;100.00;100821.22;4825543;29;20054;-65
2023/08/27 00:46:54;;;;;;;2.35;1.85;;;;;;;17.25;100.00;100801.94;4818325;29;20050;-64
2023/08/27 00:49:22;;;;;;;3.10;1.77;;;;;;;17.24;100.00;100803.03;4809276;29;20057;-64
2023/08/27 00:51:50;;;;;;;3.78;1.90;;;;;;;17.21;100.00;100798.97;4792758;29;20131;-64
2023/08/27 00:54:18;;;;;;;2.25;1.98;;;;;;;17.21;100.00;100787.97;4792394;29;20066;-65
2023/08/27 00:56:46;;;;;;;3.72;2.00;;;;;;;17.25;100.00;100790.91;4791252;29;20074;-64
2023/08/27 00:59:13;;;;;;;4.60;2.30;;;;;;;17.28;100.00;100787.53;4777593;29;20445;-65
2023/08/27 01:01:42;;;;;;;3.25;2.05;;;;;;;17.29;100.00;100778.13;4808966;29;20050;-65
2023/08/27 01:04:09;;;;;;;5.00;2.08;;;;;;;17.27;100.00;100785.91;4793052;29;20047;-64
2023/08/27 01:06:38;;;;;;;3.28;1.88;;;;;;;17.28;100.00;100786.72;4792454;29;20051;-65
2023/08/27 01:09:17;;;;;;;4.78;2.17;;;;;;;17.27;100.00;100779.56;4789420;29;20051;-66
2023/08/27 01:11:59;;;;;;;3.88;2.05;;;;;;;17.27;100.00;100777.66;4789053;30;20059;-65
2023/08/27 01:14:29;;;;;;;3.72;2.47;;;;;;;17.24;100.00;100781.00;4788572;30;20055;-64
2023/08/27 01:16:59;;;;;;;4.20;2.00;;;;;;;17.19;100.00;100779.19;4789913;30;20051;-65
2023/08/27 01:19:27;;;;;;;2.45;1.77;;;;;;;17.17;100.00;100777.88;4774801;30;20048;-64
2023/08/27 01:21:55;;;;;;;2.30;1.90;;;;;;;17.17;100.00;100775.97;4791111;29;20063;-63
2023/08/27 01:24:23;;;;;;;3.63;1.70;;;;;;;17.19;100.00;100773.69;4759611;30;20059;-64
2023/08/27 01:27:11;;;;;;;3.28;1.83;;;;;;;17.20;100.00;100766.25;4774315;30;20115;-64
2023/08/27 01:29:45;;;;;;;2.50;1.40;;;;;;;17.23;100.00;100762.88;4773878;30;20062;-64
2023/08/27 01:32:28;;;;;;;2.90;1.92;;;;;;;17.23;100.00;100765.63;4774213;30;20039;-65
2023/08/27 01:34:57;;;;;;;2.35;1.75;;;;;;;17.21;100.00;100760.44;4789996;29;20480;-64
2023/08/27 01:37:25;;;;;;;3.42;1.70;;;;;;;17.20;100.00;100758.00;4773597;29;20389;-64
2023/08/27 01:40:05;;;;;;;1.70;1.60;;;;;;;17.24;100.00;100757.06;4790051;30;20058;-65
2023/08/27 01:42:35;;;;;;;9.32;1.92;;;;;;;17.22;100.00;100764.81;4773943;29;20051;-65
2023/08/27 01:45:09;;;;;;;2.10;1.60;;;;;;;17.21;100.00;100754.91;4773371;30;20420;-64
2023/08/27 01:47:36;;;;;;;3.40;1.75;;;;;;;17.19;100.00;100761.88;4794470;29;20047;-65
2023/08/27 01:50:05;;;;;;;2.53;1.90;;;;;;;17.17;100.00;100769.63;4807774;29;20135;-65
2023/08/27 01:52:35;;;;;;;3.17;1.80;;;;;;;17.16;100.00;100776.28;4807840;29;20057;-64
2023/08/27 01:55:10;;;;;;;2.35;1.70;;;;;;;17.12;100.00;100773.31;4791032;29;20063;-64
2023/08/27 01:57:38;;;;;;;4.15;2.03;;;;;;;17.12;100.00;100772.50;4808564;29;20058;-66
2023/08/27 02:00:09;;;;;;;2.22;2.03;;;;;;;17.08;100.00;100766.00;4775618;29;20493;-65
2023/08/27 02:02:43;;;;;;;4.38;2.13;;;;;;;17.08;100.00;100763.25;4808033;29;20150;-64
2023/08/27 02:05:11;;;;;;;2.60;1.80;;;;;;;17.08;100.00;100766.00;4776271;29;20059;-65
2023/08/27 02:07:41;;;;;;;2.92;1.98;;;;;;;17.04;100.00;100763.88;4791291;29;20054;-65
2023/08/27 02:10:09;;;;;;;2.28;1.77;;;;;;;17.02;100.00;100757.06;4806230;29;20057;-64
2023/08/27 02:12:37;;;;;;;3.40;2.00;;;;;;;16.99;100.00;100749.44;4804817;29;20050;-64
2023/08/27 02:15:07;;;;;;;3.85;2.00;;;;;;;16.94;100.00;100750.38;4790773;29;20068;-65
2023/08/27 02:17:35;;;;;;;3.22;1.85;;;;;;;16.96;100.00;100752.81;4791566;29;20062;-64
2023/08/27 02:20:09;;;;;;;3.78;2.20;;;;;;;16.93;100.00;100746.00;4790934;29;20050;-65
2023/08/27 02:22:38;;;;;;;4.18;1.90;;;;;;;16.94;100.00;100749.56;4777246;29;20046;-65
2023/08/27 02:25:06;;;;;;;3.20;1.90;;;;;;;16.93;100.00;100748.75;4789852;29;20059;-65
2023/08/27 02:27:33;;;;;;;3.38;2.13;;;;;;;16.91;100.00;100745.50;4805862;29;20050;-64
2023/08/27 02:30:03;;;;;;;2.55;1.75;;;;;;;16.91;100.00;100748.25;4775885;29;20047;-64
2023/08/27 02:32:31;;;;;;;3.72;2.10;;;;;;;16.93;100.00;100746.00;4798139;29;20059;-64
2023/08/27 02:34:59;;;;;;;3.53;1.90;;;;;;;16.94;100.00;100739.38;4789037;30;20051;-65
2023/08/27 02:37:27;;;;;;;3.35;1.67;;;;;;;17.01;100.00;100741.69;4772821;30;20408;-64
2023/08/27 02:39:54;;;;;;;2.95;1.80;;;;;;;16.99;100.00;100741.19;4773869;30;20051;-65
2023/08/27 02:42:22;;;;;;;3.85;1.77;;;;;;;16.99;100.00;100747.50;4789063;30;20066;-64
2023/08/27 02:44:50;;;;;;;3.72;1.80;;;;;;;17.07;100.00;100756.13;4788551;30;20512;-64
2023/08/27 02:47:18;;;;;;;2.20;1.75;;;;;;;17.11;100.00;100759.88;4773766;30;20055;-64
2023/08/27 02:49:46;;;;;;;3.22;1.98;;;;;;;17.11;100.00;100773.66;4790205;30;20515;-65
2023/08/27 02:52:16;;;;;;;2.75;1.70;;;;;;;17.02;100.00;100768.88;4787561;30;20055;-65
2023/08/27 02:54:43;;;;;;;2.78;2.00;;;;;;;16.93;100.00;100775.44;4778787;29;20065;-65
2023/08/27 02:57:12;;;;;;;5.15;2.30;;;;;;;16.78;100.00;100769.19;4788850;29;20154;-65
2023/08/27 02:59:39;;;;;;;4.90;2.40;;;;;;;16.67;100.00;100759.53;4772138;30;20063;-65
2023/08/27 03:02:07;;;;;;;4.22;2.10;;;;;;;16.51;100.00;100750.78;4772277;29;20051;-64
2023/08/27 03:04:36;;;;;;;3.05;2.22;;;;;;;16.45;100.00;100760.31;4805813;29;20047;-64
2023/08/27 03:07:03;;;;;;;3.55;1.98;;;;;;;16.52;100.00;100757.09;4806401;29;20050;-66
2023/08/27 03:09:31;;;;;;;4.53;1.75;;;;;;;16.56;100.00;100764.44;4820759;29;20058;-66
2023/08/27 03:11:59;;;;;;;3.50;1.90;;;;;;;16.67;100.00;100777.94;4792803;29;20047;-64
2023/08/27 03:14:27;;;;;;;5.55;2.05;;;;;;;16.73;100.00;100777.53;4804071;29;20476;-64
2023/08/27 03:16:55;;;;;;;2.67;1.70;;;;;;;16.77;100.00;100772.22;4806320;29;20061;-65
2023/08/27 03:19:22;;;;;;;3.00;1.75;;;;;;;16.83;100.00;100782.00;4820172;29;20131;-65
2023/08/27 03:21:50;;;;;;;4.13;2.15;;;;;;;16.81;100.00;100784.25;4805199;29;20062;-65
2023/08/27 03:24:18;;;;;;;4.50;2.10;;;;;;;16.82;100.00;100792.22;4805934;29;20058;-65
2023/08/27 03:26:46;;;;;;;3.72;2.28;;;;;;;16.78;100.00;100782.09;4790166;29;20106;-65
2023/08/27 03:29:14;;;;;;;5.95;2.38;;;;;;;16.75;100.00;100777.22;4806489;29;20051;-65
2023/08/27 03:31:42;;;;;;;4.28;2.30;;;;;;;16.74;100.00;100773.66;4806327;29;20057;-65
2023/08/27 03:34:10;;;;;;;3.85;2.15;;;;;;;16.69;100.00;100778.44;4835364;29;20397;-64
2023/08/27 03:36:38;;;;;;;5.47;2.03;;;;;;;16.66;100.00;100776.31;4805668;29;20489;-65
2023/08/27 03:39:06;;;;;;;5.05;1.90;;;;;;;16.68;100.00;100779.59;4789999;29;20092;-65
2023/08/27 03:41:33;;;;;;;4.97;2.30;;;;;;;16.64;100.00;100778.56;4804971;29;20051;-64
2023/08/27 03:44:02;;;;;;;5.15;2.20;;;;;;;16.61;100.00;100774.50;4789675;29;20054;-64
2023/08/27 03:46:30;;;;;;;3.80;2.20;;;;;;;16.64;100.00;100786.81;4820080;29;20079;-62
2023/08/27 03:49:02;;;;;;;4.93;2.40;;;;;;;16.65;100.00;100780.22;4804686;29;20061;-65
2023/08/27 03:51:30;;;;;;;4.18;2.22;;;;;;;16.71;100.00;100788.03;4802782;29;20048;-64
2023/08/27 03:53:59;;;;;;;4.47;2.30;;;;;;;16.75;100.00;100796.47;4779042;29;20108;-64
2023/08/27 03:56:27;;;;;;;5.18;2.50;;;;;;;16.74;100.00;100797.59;4778436;29;20051;-63
2023/08/27 03:58:55;;;;;;;2.97;1.67;;;;;;;16.75;100.00;100793.72;4812761;29;20099;-64
2023/08/27 04:01:23;;;;;;;3.90;2.10;;;;;;;16.75;100.00;100785.47;4797014;29;20051;-65
2023/08/27 04:03:53;;;;;;;4.25;2.50;;;;;;;16.70;100.00;100777.34;4787177;29;20102;-60
2023/08/27 04:06:21;;;;;;;5.68;2.40;;;;;;;16.67;100.00;100770.53;4806607;29;20101;-65
2023/08/27 04:08:49;;;;;;;5.97;2.70;;;;;;;16.61;100.00;100764.31;4805367;29;20427;-61
2023/08/27 04:11:17;;;;;;;5.13;2.58;;;;;;;16.59;100.00;100761.06;4811507;29;20058;-61
2023/08/27 04:13:44;;;;;;;6.70;2.47;;;;;;;16.57;100.00;100757.81;4807934;29;20061;-62
2023/08/27 04:16:12;;;;;;;3.22;1.80;;;;;;;16.59;100.00;100746.50;4805928;29;20062;-65
2023/08/27 04:18:40;;;;;;;4.65;2.10;;;;;;;16.59;100.00;100743.75;4817507;29;20062;-64
2023/08/27 04:21:09;;;;;;;7.20;2.60;;;;;;;16.57;100.00;100740.47;4799965;29;20179;-65
2023/08/27 04:23:36;;;;;;;4.03;2.08;;;;;;;16.59;100.00;100744.53;4809557;29;20477;-64
2023/08/27 04:26:04;;;;;;;2.88;1.83;;;;;;;16.59;100.00;100739.03;4793152;29;20530;-64
2023/08/27 04:28:33;;;;;;;3.55;2.30;;;;;;;16.57;100.00;100729.47;4814622;29;20380;-65
2023/08/27 04:31:00;;;;;;;4.13;1.90;;;;;;;16.56;100.00;100734.16;4818940;29;20134;-64
2023/08/27 04:33:28;;;;;;;3.53;2.13;;;;;;;16.54;100.00;100741.91;4792936;29;20618;-66
2023/08/27 04:35:57;;;;;;;3.72;1.80;;;;;;;16.58;100.00;100745.69;4808618;29;20047;-66
2023/08/27 04:38:24;;;;;;;3.17;2.00;;;;;;;16.61;100.00;100755.25;4808515;29;20066;-65
2023/08/27 04:40:53;;;;;;;6.55;2.60;;;;;;;16.63;100.00;100749.44;4792708;29;20087;-66
2023/08/27 04:43:21;;;;;;;2.92;1.92;;;;;;;16.60;100.00;100739.88;4777190;29;20080;-65
2023/08/27 04:45:49;;;;;;;3.40;1.90;;;;;;;16.61;100.00;100753.31;4791301;29;20054;-65
2023/08/27 04:48:17;;;;;;;3.95;2.05;;;;;;;16.63;100.00;100743.94;4808798;29;20514;-65
2023/08/27 04:50:45;;;;;;;5.47;2.08;;;;;;;16.61;100.00;100758.00;4777602;29;20106;-66
2023/08/27 04:53:13;;;;;;;3.45;2.20;;;;;;;16.57;100.00;100755.06;4792146;29;20115;-64
2023/08/27 04:55:41;;;;;;;3.95;2.05;;;;;;;16.54;100.00;100752.91;4792224;29;20055;-66
2023/08/27 04:58:09;;;;;;;3.67;2.03;;;;;;;16.52;100.00;100749.66;4794823;29;20059;-66
2023/08/27 05:00:38;;;;;;;2.70;2.00;;;;;;;16.52;100.00;100755.16;4825976;29;20058;-65
2023/08/27 05:03:06;;;;;;;2.47;1.95;;;;;;;16.54;100.00;100758.41;4825273;29;20053;-65
2023/08/27 05:05:34;;;;;;;5.38;2.60;;;;;;;16.54;100.00;100757.59;4810185;29;20054;-65
2023/08/27 05:08:02;;;;;;;3.97;2.20;;;;;;;16.52;100.00;100759.84;4824237;29;20058;-66
2023/08/27 05:10:30;;;;;;;5.65;2.50;;;;;;;16.52;100.00;100763.41;4808049;29;20070;-66
2023/08/27 05:12:58;;;;;;;4.07;2.33;;;;;;;16.47;100.00;100769.03;4777236;29;20493;-66
2023/08/27 05:15:26;;;;;;;3.95;2.60;;;;;;;16.42;100.00;100777.41;4792028;29;20431;-66
2023/08/27 05:17:54;;;;;;;3.70;2.33;;;;;;;16.37;100.00;100775.56;4791693;29;20051;-66
2023/08/27 05:20:22;;;;;;;4.72;2.60;;;;;;;16.36;100.00;100773.16;4791986;29;20420;-65
2023/08/27 05:22:50;;;;;;;4.38;2.35;;;;;;;16.36;100.00;100773.16;4761981;29;20060;-65
2023/08/27 05:25:18;;;;;;;3.55;2.35;;;;;;;16.39;100.00;100776.06;4777000;29;20055;-65
2023/08/27 05:27:45;;;;;;;3.90;2.00;;;;;;;16.44;100.00;100772.41;4798638;29;20058;-65
2023/08/27 05:30:14;;;;;;;4.13;1.85;;;;;;;16.44;100.00;100774.34;4795418;29;20054;-65
2023/08/27 05:32:43;;;;;;;6.70;2.28;;;;;;;16.40;100.00;100766.72;4795328;29;20050;-65
2023/08/27 05:35:11;;;;;;;5.38;2.40;;;;;;;16.42;100.00;100766.41;4794555;29;20051;-65
2023/08/27 05:37:39;;;;;;;5.00;2.53;;;;;;;16.38;100.00;100762.66;4808114;29;20062;-65
2023/08/27 05:40:08;;;;;;;6.20;2.53;;;;;;;16.36;100.00;100762.94;4792230;29;20087;-65
2023/08/27 05:42:36;;;;;;;4.88;2.33;;;;;;;16.31;100.00;100765.81;4808086;29;20098;-66
2023/08/27 05:45:04;;;;;;;5.32;2.40;;;;;;;16.25;100.00;100760.72;4818936;29;20446;-65
2023/08/27 05:47:32;;;;;;;7.18;2.63;;;;;;;16.21;100.00;100765.22;4826220;29;20058;-67
2023/08/27 05:50:00;;;;;;;8.50;2.55;;;;;;;16.17;100.00;100768.56;4826317;29;20050;-66
2023/08/27 05:52:30;;;;;;;4.35;2.47;;;;;;;16.21;100.00;100762.47;4810015;29;20556;-65
2023/08/27 05:54:58;;;;;;;6.30;2.53;;;;;;;16.24;100.00;100753.63;4806185;29;20114;-65
2023/08/27 05:57:26;;;;;;;4.82;2.28;;;;;;;16.28;100.00;100758.16;4803118;29;20054;-66
2023/08/27 05:59:54;;;;;;;4.90;2.35;;;;;;;16.30;100.00;100757.88;4824983;29;20579;-65
2023/08/27 06:02:21;;;;;;;4.82;2.08;;;;;;;16.34;100.00;100758.88;4805844;29;20065;-66
2023/08/27 06:04:49;;;;;;;3.28;1.88;;;;;;;16.41;100.00;100753.78;4791437;29;20043;-65
2023/08/27 06:07:17;;;;;;;8.13;2.30;;;;;;;16.46;100.00;100750.91;4790999;29;20504;-65
2023/08/27 06:09:45;;;;;;;5.88;1.90;;;;;;;16.54;100.00;100757.59;4784081;29;20039;-65
2023/08/27 06:12:13;;;;;;;4.65;2.00;;;;;;;16.58;100.00;100756.69;4790858;29;20504;-66
2023/08/27 06:14:40;;;;;;;5.05;2.15;;;;;;;16.57;100.00;100751.47;4791101;29;20447;-64
2023/08/27 06:17:08;;;;;;;5.70;1.85;;;;;;;16.56;100.00;100758.94;4791232;29;20051;-65
2023/08/27 06:19:36;;;;;;;7.32;2.50;;;;;;;16.57;100.00;100752.31;4791184;29;20510;-65
2023/08/27 06:22:16;;;;;;;4.03;1.90;;;;;;;16.64;100.00;100751.06;4807303;29;20051;-66
2023/08/27 06:24:44;;;;;;;3.97;2.05;;;;;;;16.69;100.00;100745.44;4796924;29;20058;-65
2023/08/27 06:27:14;;;;;;;5.32;2.50;;;;;;;16.62;100.00;100737.63;4808831;29;20054;-65
2023/08/27 06:29:45;;;;;;;3.03;2.00;;;;;;;16.64;100.00;100737.31;4793369;29;20415;-65
2023/08/27 06:32:16;;;;;;;5.95;2.40;;;;;;;16.57;100.00;100724.81;4824261;29;20479;-65
2023/08/27 06:34:44;;;;;;;4.10;2.20;;;;;;;16.63;100.00;100732.94;4824179;29;20057;-66
2023/08/27 06:37:12;;;;;;;4.95;2.35;;;;;;;16.69;100.00;100735.28;4810070;29;20047;-66
2023/08/27 06:39:40;;;;;;;3.75;2.20;;;;;;;16.65;100.00;100741.69;4806113;29;20077;-65
2023/08/27 06:42:08;;;;;;;5.03;2.25;;;;;;;16.61;100.00;100742.31;4805651;29;20054;-66
2023/08/27 06:44:35;;;;;;;7.50;2.63;;;;;;;16.63;100.00;100744.75;4805154;29;20055;-66
2023/08/27 06:47:05;;;;;;;4.78;2.45;;;;;;;16.63;100.00;100738.44;4791068;29;20058;-64
2023/08/27 06:49:33;;;;;;;4.68;2.50;;;;;;;16.67;100.00;100739.44;4791052;29;20138;-65
2023/08/27 06:52:00;;;;;;;5.40;2.28;;;;;;;16.77;100.00;100742.75;4791404;29;20552;-67
2023/08/27 06:54:28;;;;;;;3.65;2.28;;;;;;;16.79;100.00;100731.50;4784642;29;20415;-66
2023/08/27 06:56:56;;;;;;;5.32;2.47;;;;;;;16.79;100.00;100726.00;4819563;29;20120;-66
2023/08/27 06:59:25;;;;;;;5.03;2.15;;;;;;;16.85;100.00;100738.47;4823141;29;20063;-66
2023/08/27 07:01:53;;;;;;;5.05;1.92;;;;;;;16.82;100.00;100736.34;4795222;29;20894;-66
2023/08/27 07:04:21;;;;;;;3.42;2.03;;;;;;;16.90;100.00;100738.34;4808431;29;20047;-66
2023/08/27 07:06:49;;;;;;;3.97;2.10;;;;;;;16.95;100.00;100735.47;4775760;29;20059;-65
2023/08/27 07:09:16;;;;;;;4.95;2.20;;;;;;;17.06;100.00;100740.75;4821203;29;20058;-66
2023/08/27 07:11:44;;;;;;;3.90;2.15;;;;;;;17.09;100.00;100740.91;4792164;29;20058;-67
2023/08/27 07:14:12;;;;;;;7.35;3.03;;;;;;;16.94;100.00;100749.56;4805266;29;20058;-66
2023/08/27 07:16:40;;;;;;;4.20;2.60;;;;;;;16.92;100.00;100746.31;4797398;29;20410;-65
2023/08/27 07:19:07;;;;;;;10.38;3.53;;;;;;;16.85;100.00;100743.97;4823169;29;20066;-65
2023/08/27 07:21:35;;;;;;;6.57;2.78;;;;;;;16.83;100.00;100738.78;4823241;29;20059;-68
2023/08/27 07:24:06;;;;;;;6.80;2.70;;;;;;;16.94;100.00;100744.88;4795026;29;20051;-65
2023/08/27 07:26:34;;;;;;;7.05;3.00;;;;;;;16.88;100.00;100740.59;4790152;29;20047;-65
2023/08/27 07:29:02;;;;;;;4.65;2.60;;;;;;;16.83;100.00;100744.28;4794760;29;20076;-66
2023/08/27 07:31:30;;;;;;;6.07;2.70;;;;;;;16.86;100.00;100740.13;4808502;29;20046;-67
2023/08/27 07:33:58;;;;;;;6.85;2.22;;;;;;;16.90;100.00;100749.38;4812621;29;20419;-66
2023/08/27 07:36:25;;;;;;;5.45;2.53;;;;;;;16.90;100.00;100749.38;4790408;29;20047;-66
2023/08/27 07:38:54;;;;;;;4.50;2.28;;;;;;;17.02;100.00;100740.53;4775532;29;20043;-65
2023/08/27 07:41:22;;;;;;;7.95;3.15;;;;;;;17.02;100.00;100749.59;4778737;29;20051;-66
2023/08/27 07:43:50;;;;;;;6.55;2.25;;;;;;;16.96;100.00;100752.81;4799016;29;20054;-66
2023/08/27 07:46:18;;;;;;;7.90;3.53;;;;;;;17.18;100.00;100746.50;4826919;29;20054;-66
2023/08/27 07:48:46;;;;;;;5.35;2.47;;;;;;;17.07;100.00;100750.63;4825803;29;20059;-65
2023/08/27 07:51:14;;;;;;;5.70;2.88;;;;;;;17.06;100.00;100746.25;4816001;29;20425;-65
2023/08/27 07:53:42;;;;;;;9.07;2.90;;;;;;;17.13;100.00;100736.41;4808559;29;20058;-66
2023/08/27 07:56:09;;;;;;;7.80;3.53;;;;;;;17.06;100.00;100744.31;4135215;29;10000946;-66
2023/08/27 07:58:38;;;;;;;9.20;3.22;;;;;;;16.98;100.00;100740.38;4778036;29;20054;-66
2023/08/27 08:01:06;;;;;;;9.20;2.45;;;;;;;17.09;100.00;100738.16;4791056;29;20071;-65
2023/08/27 08:03:37;;;;;;;9.35;2.83;;;;;;;17.08;100.00;100744.81;4790075;29;20058;-66
2023/08/27 08:06:05;;;;;;;7.68;3.40;;;;;;;17.01;100.00;100739.72;4806735;29;20050;-67
2023/08/27 08:08:33;;;;;;;8.55;3.30;;;;;;;17.26;100.00;100740.22;4805245;29;20062;-66
2023/08/27 08:11:01;;;;;;;9.38;3.00;;;;;;;17.34;100.00;100742.22;4770917;30;20086;-65
2023/08/27 08:13:32;;;;;;;6.28;2.75;;;;;;;17.30;100.00;100735.72;4782617;29;20073;-65
2023/08/27 08:15:59;;;;;;;10.00;3.72;;;;;;;17.29;100.00;100731.31;4789428;29;20054;-64
2023/08/27 08:18:27;;;;;;;6.20;2.90;;;;;;;17.27;100.00;100736.34;4787877;30;20065;-66
2023/08/27 08:20:56;;;;;;;26.00;6.80;;;;;;;17.37;100.00;100730.56;4786796;30;20055;-66
2023/08/27 08:23:23;;;;;;;11.90;4.18;;;;;;;17.33;100.00;100726.81;4805091;29;20497;-67
2023/08/27 08:25:52;;;;;;;11.52;4.25;;;;;;;17.38;100.00;100736.88;4805705;29;20119;-65
2023/08/27 08:28:21;;;;;;;15.63;3.95;;;;;;;17.31;100.00;100737.31;4813941;29;20060;-65
2023/08/27 08:30:50;;;;;;;17.45;5.13;;;;;;;17.48;100.00;100728.34;4823674;29;20526;-66
2023/08/27 08:33:18;;;;;;;17.02;5.28;;;;;;;17.66;100.00;100735.56;4796253;29;20059;-66
2023/08/27 08:35:46;;;;;;;8.82;3.65;;;;;;;17.51;100.00;100741.50;4808706;29;20060;-65
2023/08/27 08:38:14;;;;;;;7.45;3.05;;;;;;;17.38;100.00;100743.19;4795610;29;20063;-60
2023/08/27 08:40:48;;;;;;;8.77;3.28;;;;;;;17.41;100.00;100744.50;4807163;29;20114;-62
2023/08/27 08:43:47;;;;;;;7.53;2.88;;;;;;;17.45;100.00;100742.75;4823044;29;20129;-64
2023/08/27 08:46:18;;;;;;;8.38;3.00;;;;;;;17.60;100.00;100742.31;4796296;29;20059;-65
2023/08/27 08:48:50;;;;;;;15.57;4.10;;;;;;;17.63;100.00;100744.47;4779659;29;20449;-64
2023/08/27 08:51:24;;;;;;;9.27;3.40;;;;;;;17.86;100.00;100747.16;4807786;29;20113;-66
2023/08/27 08:53:55;;;;;;;12.73;3.60;;;;;;;17.86;100.00;100747.16;4793584;29;20549;-65
2023/08/27 08:56:28;;;;;;;9.68;3.35;;;;;;;17.86;100.00;100752.69;4795378;29;20054;-66
2023/08/27 08:58:57;;;;;;;11.15;3.72;;;;;;;17.90;100.00;100747.34;4801111;29;20054;-63
2023/08/27 09:01:25;;;;;;;9.85;3.35;;;;;;;17.99;100.00;100739.91;4820284;29;20118;-63
2023/08/27 09:03:53;;;;;;;9.90;3.15;;;;;;;18.02;100.00;100737.34;4815293;29;20117;-64
2023/08/27 09:06:23;;;;;;;6.65;2.65;;;;;;;17.92;100.00;100739.56;4823825;29;20046;-66
2023/08/27 09:08:51;;;;;;;9.40;2.90;;;;;;;18.00;100.00;100722.25;4823502;29;20471;-64
2023/08/27 09:11:22;;;;;;;7.93;2.97;;;;;;;18.12;100.00;100725.19;4811602;29;20066;-66
2023/08/27 09:13:51;;;;;;;7.95;2.88;;;;;;;18.14;100.00;100722.91;4798854;29;20050;-66
2023/08/27 09:16:18;;;;;;;7.80;2.83;;;;;;;18.17;100.00;100718.72;4789554;29;20054;-66
2023/08/27 09:18:46;;;;;;;7.97;2.80;;;;;;;18.31;100.00;100713.88;4805525;29;20054;-65
2023/08/27 09:21:14;;;;;;;8.15;2.90;;;;;;;18.45;100.00;100719.25;4804701;29;20564;-67
2023/08/27 09:23:42;;;;;;;9.15;2.88;;;;;;;18.37;100.00;100707.03;4806197;29;20050;-68
2023/08/27 09:26:12;;;;;;;7.18;2.53;;;;;;;18.34;100.00;100707.69;4790490;29;20662;-66
2023/08/27 09:28:40;;;;;;;6.63;2.72;;;;;;;18.29;100.00;100714.19;4775080;29;20431;-66
2023/08/27 09:31:11;;;;;;;6.22;2.58;;;;;;;18.34;100.00;100706.88;4787946;29;20101;-69
2023/08/27 09:33:41;;;;;;;5.60;2.17;;;;;;;18.30;100.00;100704.78;4795401;29;20055;-66
2023/08/27 09:36:09;;;;;;;7.05;2.50;;;;;;;18.38;100.00;100708.69;4789065;29;20051;-65
2023/08/27 09:38:39;;;;;;;6.35;2.38;;;;;;;18.43;100.00;100693.91;4788625;29;20504;-65
2023/08/27 09:41:15;;;;;;;5.80;2.45;;;;;;;18.28;98.65;100696.00;4804199;29;20420;-65
2023/08/27 09:43:53;;;;;;;5.00;2.40;;;;;;;18.21;96.17;100701.19;4796835;29;20546;-65
2023/08/27 09:46:21;;;;;;;6.18;2.03;;;;;;;18.23;100.00;100698.94;4778077;29;20059;-65
2023/08/27 09:49:00;;;;;;;4.50;2.30;;;;;;;18.17;94.69;100700.22;4791602;29;20123;-66
2023/08/27 09:51:29;;;;;;;6.05;2.30;;;;;;;18.23;94.54;100689.81;4822696;29;20053;-65
2023/08/27 09:53:56;;;;;;;3.92;2.10;;;;;;;18.34;99.57;100690.34;4806497;29;20069;-65
2023/08/27 09:56:25;;;;;;;4.85;1.80;;;;;;;18.43;100.00;100688.41;4807311;29;20124;-66
2023/08/27 09:58:54;;;;;;;4.53;2.10;;;;;;;18.46;100.00;100684.97;4805587;29;20058;-66
2023/08/27 10:01:23;;;;;;;7.93;2.45;;;;;;;18.57;99.60;100680.78;4797305;29;20123;-65
2023/08/27 10:03:51;;;;;;;4.70;2.25;;;;;;;18.62;99.93;100686.13;4791966;29;20061;-67
2023/08/27 10:06:19;;;;;;;5.82;2.17;;;;;;;18.63;97.41;100687.72;4813391;29;20046;-66
2023/08/27 10:08:54;;;;;;;7.03;1.83;;;;;;;18.73;99.66;100679.09;4821041;29;20117;-65
2023/08/27 10:11:22;;;;;;;4.85;2.20;;;;;;;18.90;97.20;100683.00;4806441;29;20050;-66
2023/08/27 10:13:50;;;;;;;6.65;2.28;;;;;;;18.87;92.99;100680.91;4809925;29;20058;-65
2023/08/27 10:16:18;;;;;;;5.40;2.08;;;;;;;19.08;94.06;100687.38;4803176;29;20054;-65
2023/08/27 10:18:47;;;;;;;5.57;2.13;;;;;;;19.17;92.45;100687.34;4794466;29;20059;-66
2023/08/27 10:21:15;;;;;;;3.22;1.70;;;;;;;19.23;95.00;100682.47;4789089;29;20062;-66
2023/08/27 10:23:43;;;;;;;10.35;2.30;;;;;;;19.29;95.09;100683.88;4771547;29;20054;-67
2023/08/27 10:26:13;;;;;;;3.85;1.95;;;;;;;19.31;92.09;100687.13;4802643;29;20057;-67
2023/08/27 10:28:41;;;;;;;5.25;1.95;;;;;;;19.21;90.62;100688.31;4774238;29;20059;-66
2023/08/27 10:31:09;;;;;;;5.60;1.92;;;;;;;19.14;92.64;100683.28;4785527;29;20054;-66
2023/08/27 10:33:36;;;;;;;6.82;2.13;;;;;;;19.10;89.43;100696.16;4781799;29;20047;-65
2023/08/27 10:36:08;;;;;;;6.45;2.20;;;;;;;19.12;90.63;100682.81;4804092;29;20051;-64
2023/08/27 10:38:39;;;;;;;7.85;2.42;;;;;;;18.86;85.46;100690.34;4820729;29;20522;-65
2023/08/27 10:41:07;;;;;;;6.45;2.00;;;;;;;18.78;90.30;100688.41;4797922;29;20412;-65
2023/08/27 10:43:35;;;;;;;4.47;1.90;;;;;;;18.80;90.10;100686.13;4787147;29;20508;-65
2023/08/27 10:46:15;;;;;;;6.53;2.03;;;;;;;19.04;92.23;100683.63;4803697;29;20078;-65
2023/08/27 10:48:51;;;;;;;4.82;2.08;;;;;;;19.19;92.51;100687.00;4788186;29;20062;-65
2023/08/27 10:51:21;;;;;;;5.10;1.60;;;;;;;19.17;92.11;100687.34;4804558;29;20122;-66
2023/08/27 10:53:49;;;;;;;8.88;2.35;;;;;;;19.07;88.62;100684.94;4794181;29;20058;-65
2023/08/27 10:56:26;;;;;;;5.82;2.47;;;;;;;18.99;86.18;100691.28;4790739;29;20054;-65
2023/08/27 10:59:00;;;;;;;4.57;1.80;;;;;;;19.07;93.95;100688.53;4815788;29;20059;-66
2023/08/27 11:01:29;;;;;;;7.97;2.35;;;;;;;19.14;90.80;100688.00;4818076;29;20060;-66
2023/08/27 11:04:01;;;;;;;7.43;2.35;;;;;;;19.13;88.39;100681.66;4802617;29;20063;-65
2023/08/27 11:06:45;;;;;;;3.20;1.52;;;;;;;19.18;91.17;100690.94;4802973;29;20047;-65
2023/08/27 11:09:17;;;;;;;6.63;2.00;;;;;;;19.27;92.12;100688.94;4787732;29;20066;-65
2023/08/27 11:11:59;;;;;;;5.07;2.47;;;;;;;19.15;88.37;100692.41;4803702;29;20058;-65
2023/08/27 11:14:27;;;;;;;5.75;2.10;;;;;;;19.03;87.84;100695.03;4802423;29;20066;-65
2023/08/27 11:17:00;;;;;;;6.22;2.40;;;;;;;18.92;85.73;100700.88;4803971;29;20059;-64
2023/08/27 11:19:32;;;;;;;6.72;2.08;;;;;;;18.92;87.14;100694.56;4786345;29;20062;-65
2023/08/27 11:22:08;;;;;;;6.78;1.92;;;;;;;18.83;85.39;100721.34;4788706;29;20069;-65
2023/08/27 11:24:38;;;;;;;;;;;;;;;18.68;82.17;100744.72;4804664;29;20058;-64
2023/08/27 11:27:06;;;;;;;1.88;1.02;;;;;;;18.30;72.33;100750.84;4789052;29;19932;-65
2023/08/27 11:29:40;;;;;;;1.67;1.05;;;;;;;17.98;72.80;100749.31;4788880;29;20120;-64